createdAt,value
2018-12-18T00:02:05.464Z,95421.52
2018-12-18T00:04:34.785Z,95424.61
2018-12-18T00:07:04.295Z,95424.16
2018-12-18T00:09:33.684Z,95426.08
2018-12-18T00:12:03.011Z,95433.39
2018-12-18T00:14:32.436Z,95431.25
2018-12-18T00:17:01.809Z,95427.19
2018-12-18T00:19:31.108Z,95421.72
2018-12-18T00:22:00.309Z,95424.81
2018-12-18T00:24:29.795Z,95430.27
2018-12-18T00:26:59.313Z,95432.50
2018-12-18T00:29:28.712Z,95439.21
2018-12-18T00:31:58.122Z,95442.42
2018-12-18T00:34:27.425Z,95440.34
2018-12-18T00:36:56.632Z,95445.39
2018-12-18T00:39:25.781Z,95437.69
2018-12-18T00:41:57.644Z,95448.64
2018-12-18T00:44:26.920Z,95447.73
2018-12-18T00:46:56.084Z,95457.05
2018-12-18T00:49:25.386Z,95462.53
2018-12-18T00:51:54.883Z,95459.78
2018-12-18T00:54:24.440Z,95463.97
2018-12-18T00:56:53.803Z,95465.03
2018-12-18T00:59:23.112Z,95472.19
2018-12-18T01:01:57.330Z,95475.00
2018-12-18T01:04:26.811Z,95474.87
2018-12-18T01:06:56.040Z,95470.89
2018-12-18T01:09:25.303Z,95472.47
2018-12-18T01:11:54.599Z,95474.99
2018-12-18T01:14:23.919Z,95479.39
2018-12-18T01:16:53.259Z,95479.98
2018-12-18T01:19:22.544Z,95469.02
2018-12-18T01:21:52.119Z,95475.27
2018-12-18T01:24:21.416Z,95475.55
2018-12-18T01:26:50.820Z,95467.66
2018-12-18T01:29:20.136Z,95469.02
2018-12-18T01:31:49.654Z,95476.95
2018-12-18T01:34:18.936Z,95478.89
2018-12-18T01:36:48.284Z,95482.23
2018-12-18T01:39:17.761Z,95481.99
2018-12-18T01:41:47.108Z,95475.52
2018-12-18T01:44:16.379Z,95478.49
2018-12-18T01:46:45.754Z,95475.15
2018-12-18T01:49:14.976Z,95476.17
2018-12-18T01:51:44.288Z,95481.95
2018-12-18T01:54:13.551Z,95477.81
2018-12-18T01:56:42.900Z,95482.59
2018-12-18T01:59:12.265Z,95479.97
2018-12-18T02:01:41.674Z,95487.31
2018-12-18T02:04:11.060Z,95488.06
2018-12-18T02:06:40.373Z,95480.52
2018-12-18T02:09:09.884Z,95483.69
2018-12-18T02:11:39.428Z,95482.06
2018-12-18T02:14:08.791Z,95485.73
2018-12-18T02:16:38.201Z,95479.26
2018-12-18T02:19:07.495Z,95477.07
2018-12-18T02:21:36.870Z,95474.99
2018-12-18T02:24:06.288Z,95481.13
2018-12-18T02:26:35.700Z,95479.66
2018-12-18T02:29:05.119Z,95482.74
2018-12-18T02:31:34.421Z,95483.94
2018-12-18T02:34:03.847Z,95480.96
2018-12-18T02:36:33.170Z,95482.58
2018-12-18T02:39:02.700Z,95481.45
2018-12-18T02:41:31.943Z,95485.12
2018-12-18T02:44:01.237Z,95478.12
2018-12-18T02:46:30.646Z,95477.91
2018-12-18T02:48:59.952Z,95474.38
2018-12-18T02:51:29.136Z,95472.31
2018-12-18T02:53:58.595Z,95465.31
2018-12-18T02:56:27.942Z,95467.63
2018-12-18T02:58:57.373Z,95470.17
2018-12-18T03:01:26.643Z,95476.97
2018-12-18T03:03:55.953Z,95476.48
2018-12-18T03:06:25.227Z,95471.78
2018-12-18T03:08:54.574Z,95479.98
2018-12-18T03:11:23.965Z,95475.06
2018-12-18T03:13:53.104Z,95473.89
2018-12-18T03:16:22.421Z,95480.36
2018-12-18T03:18:51.895Z,95482.96
2018-12-18T03:21:21.268Z,95483.13
2018-12-18T03:23:50.656Z,95475.44
2018-12-18T03:26:19.975Z,95486.70
2018-12-18T03:28:49.257Z,95488.94
2018-12-18T03:31:18.578Z,95495.36
2018-12-18T03:33:47.904Z,95492.95
2018-12-18T03:36:17.354Z,95486.27
2018-12-18T03:38:46.656Z,95494.78
2018-12-18T03:41:16.067Z,95488.94
2018-12-18T03:43:45.496Z,95486.18
2018-12-18T03:46:14.784Z,95498.26
2018-12-18T03:48:44.174Z,95502.97
2018-12-18T03:51:13.522Z,95505.25
2018-12-18T03:53:42.797Z,95497.69
2018-12-18T03:56:12.291Z,95510.41
2018-12-18T03:58:41.708Z,95507.92
2018-12-18T04:01:11.003Z,95513.82
2018-12-18T04:03:40.290Z,95517.03
2018-12-18T04:06:09.552Z,95522.84
2018-12-18T04:08:38.905Z,95524.64
2018-12-18T04:11:08.193Z,95524.11
2018-12-18T04:13:37.383Z,95530.63
2018-12-18T04:16:06.702Z,95533.38
2018-12-18T04:18:36.207Z,95538.05
2018-12-18T04:21:05.513Z,95538.69
2018-12-18T04:23:35.119Z,95542.06
2018-12-18T04:26:04.511Z,95543.14
2018-12-18T04:28:33.831Z,95545.38
2018-12-18T04:31:03.106Z,95556.11
2018-12-18T04:33:32.429Z,95554.77
2018-12-18T04:36:02.756Z,95552.97
2018-12-18T04:38:32.051Z,95559.06
2018-12-18T04:41:01.332Z,95560.32
2018-12-18T04:43:30.542Z,95566.67
2018-12-18T04:45:59.866Z,95566.27
2018-12-18T04:48:29.183Z,95566.64
2018-12-18T04:50:58.566Z,95572.92
2018-12-18T04:53:27.957Z,95579.41
2018-12-18T04:55:57.264Z,95575.13
2018-12-18T04:58:26.655Z,95580.80
2018-12-18T05:00:56.156Z,95587.06
2018-12-18T05:03:25.484Z,95588.12
2018-12-18T05:05:54.862Z,95588.78
2018-12-18T05:08:24.184Z,95589.64
2018-12-18T05:10:53.460Z,95593.95
2018-12-18T05:13:22.875Z,95592.17
2018-12-18T05:15:51.996Z,95601.39
2018-12-18T05:18:21.493Z,95602.17
2018-12-18T05:20:50.793Z,95600.92
2018-12-18T05:23:20.731Z,95604.80
2018-12-18T05:25:50.292Z,95608.53
2018-12-18T05:28:19.676Z,95605.30
2018-12-18T05:30:49.007Z,95611.13
2018-12-18T05:33:18.421Z,95607.89
2018-12-18T05:35:47.511Z,95605.67
2018-12-18T05:38:16.915Z,95614.73
2018-12-18T05:40:46.231Z,95621.53
2018-12-18T05:43:15.598Z,95617.67
2018-12-18T05:45:44.815Z,95621.25
2018-12-18T05:48:14.115Z,95625.41
2018-12-18T05:50:43.284Z,95619.27
2018-12-18T05:53:12.624Z,95624.81
2018-12-18T05:55:42.029Z,95625.25
2018-12-18T05:58:11.234Z,95629.16
2018-12-18T06:00:40.645Z,95633.76
2018-12-18T06:03:09.868Z,95631.17
2018-12-18T06:05:39.148Z,95632.35
2018-12-18T06:08:08.634Z,95634.55
2018-12-18T06:10:37.959Z,95633.20
2018-12-18T06:13:07.354Z,95637.97
2018-12-18T06:15:36.628Z,95639.55
2018-12-18T06:18:05.938Z,95642.93
2018-12-18T06:20:35.253Z,95644.27
2018-12-18T06:23:04.660Z,95640.39
2018-12-18T06:25:34.150Z,95645.34
2018-12-18T06:28:03.584Z,95646.11
2018-12-18T06:30:32.873Z,95644.06
2018-12-18T06:33:02.175Z,95650.30
2018-12-18T06:35:31.779Z,95644.30
2018-12-18T06:38:01.167Z,95653.64
2018-12-18T06:40:30.134Z,95652.17
2018-12-18T06:42:59.196Z,95652.33
2018-12-18T06:45:28.491Z,95654.58
2018-12-18T06:47:57.777Z,95656.30
2018-12-18T06:50:27.117Z,95659.66
2018-12-18T06:52:56.460Z,95667.56
2018-12-18T06:55:25.845Z,95665.80
2018-12-18T06:57:55.011Z,95662.65
2018-12-18T07:00:24.171Z,95666.56
2018-12-18T07:02:53.483Z,95664.37
2018-12-18T07:05:22.773Z,95668.06
2018-12-18T07:07:57.314Z,95666.27
2018-12-18T07:10:23.409Z,95664.68
2018-12-18T07:12:52.717Z,95671.97
2018-12-18T07:15:22.127Z,95675.61
2018-12-18T07:17:51.427Z,95677.02
2018-12-18T07:20:20.628Z,95672.45
2018-12-18T07:22:50.014Z,95683.62
2018-12-18T07:25:19.417Z,95685.48
2018-12-18T07:27:48.704Z,95687.73
2018-12-18T07:30:18.046Z,95694.58
2018-12-18T07:32:47.440Z,95688.69
2018-12-18T07:35:23.042Z,95691.38
2018-12-18T07:37:48.108Z,95695.30
2018-12-18T07:40:17.511Z,95699.66
2018-12-18T07:42:46.992Z,95696.17
2018-12-18T07:45:16.308Z,95704.02
2018-12-18T07:47:45.587Z,95707.56
2018-12-18T07:50:14.831Z,95703.34
2018-12-18T07:52:44.104Z,95706.75
2018-12-18T07:55:13.440Z,95701.91
2018-12-18T07:57:42.806Z,95706.04
2018-12-18T08:00:12.007Z,95705.61
2018-12-18T08:02:41.409Z,95707.04
2018-12-18T08:05:10.911Z,95710.74
2018-12-18T08:07:40.122Z,95716.43
2018-12-18T08:10:09.431Z,95717.68
2018-12-18T08:12:38.554Z,95714.08
2018-12-18T08:15:07.821Z,95714.28
2018-12-18T08:17:37.116Z,95722.91
2018-12-18T08:20:06.655Z,95724.16
2018-12-18T08:22:35.925Z,95721.27
2018-12-18T08:25:05.563Z,95722.19
2018-12-18T08:27:34.840Z,95731.97
2018-12-18T08:30:04.134Z,95730.76
2018-12-18T08:32:33.446Z,95719.11
2018-12-18T08:35:02.768Z,95729.51
2018-12-18T08:37:32.238Z,95739.20
2018-12-18T08:40:01.647Z,95741.16
2018-12-18T08:42:30.943Z,95742.31
2018-12-18T08:45:00.354Z,95740.87
2018-12-18T08:47:29.743Z,95741.59
2018-12-18T08:49:58.951Z,95745.81
2018-12-18T08:52:28.256Z,95744.67
2018-12-18T08:54:57.476Z,95746.01
2018-12-18T08:57:26.686Z,95744.41
2018-12-18T08:59:56.044Z,95745.52
2018-12-18T09:02:25.452Z,95754.48
2018-12-18T09:04:54.852Z,95751.22
2018-12-18T09:07:24.051Z,95748.20
2018-12-18T09:09:53.375Z,95744.98
2018-12-18T09:12:22.876Z,95742.08
2018-12-18T09:14:58.708Z,95743.94
2018-12-18T09:17:32.997Z,95739.10
2018-12-18T09:20:02.461Z,95743.33
2018-12-18T09:22:31.735Z,95741.07
2018-12-18T09:25:00.974Z,95743.55
2018-12-18T09:27:30.142Z,95736.84
2018-12-18T09:29:59.488Z,95735.89
2018-12-18T09:32:28.745Z,95737.57
2018-12-18T09:34:58.053Z,95731.62
2018-12-18T09:37:27.340Z,95728.61
2018-12-18T09:39:56.302Z,95730.34
2018-12-18T09:42:30.504Z,95732.86
2018-12-18T09:44:59.751Z,95724.72
2018-12-18T09:47:29.058Z,95727.59
2018-12-18T09:49:58.559Z,95735.31
2018-12-18T09:52:27.862Z,95732.63
2018-12-18T09:54:57.168Z,95730.09
2018-12-18T09:57:31.511Z,95730.38
2018-12-18T10:00:00.883Z,95729.56
2018-12-18T10:02:30.283Z,95733.06
2018-12-18T10:04:59.603Z,95727.21
2018-12-18T10:07:28.905Z,95724.34
2018-12-18T10:09:58.295Z,95719.65
2018-12-18T10:12:32.392Z,95725.73
2018-12-18T10:15:01.717Z,95713.61
2018-12-18T10:17:31.014Z,95715.16
2018-12-18T10:20:00.428Z,95717.39
2018-12-18T10:22:29.730Z,95714.32
2018-12-18T10:24:59.132Z,95714.23
2018-12-18T10:27:28.436Z,95713.61
2018-12-18T10:29:57.750Z,95711.55
2018-12-18T10:32:27.023Z,95707.86
2018-12-18T10:34:56.330Z,95709.70
2018-12-18T10:37:25.832Z,95700.13
2018-12-18T10:39:55.103Z,95700.95
2018-12-18T10:42:24.391Z,95703.02
2018-12-18T10:44:53.589Z,95696.98
2018-12-18T10:47:22.846Z,95698.42
2018-12-18T10:49:52.250Z,95703.70
2018-12-18T10:52:21.544Z,95702.73
2018-12-18T10:54:50.856Z,95698.58
2018-12-18T10:57:20.146Z,95696.60
2018-12-18T10:59:49.455Z,95701.15
2018-12-18T11:02:18.936Z,95698.72
2018-12-18T11:04:48.358Z,95694.40
2018-12-18T11:07:17.662Z,95694.16
2018-12-18T11:09:47.073Z,95688.56
2018-12-18T11:12:20.416Z,95679.65
2018-12-18T11:14:49.655Z,95688.18
2018-12-18T11:17:19.069Z,95679.70
2018-12-18T11:19:49.586Z,95676.97
2018-12-18T11:22:18.997Z,95669.27
2018-12-18T11:24:48.343Z,95668.58
2018-12-18T11:27:17.792Z,95663.31
2018-12-18T11:29:47.192Z,95670.74
2018-12-18T11:32:16.472Z,95667.81
2018-12-18T11:34:45.802Z,95668.62
2018-12-18T11:37:15.139Z,95663.98
2018-12-18T11:39:44.433Z,95667.62
2018-12-18T11:42:13.721Z,95667.86
2018-12-18T11:44:42.904Z,95673.41
2018-12-18T11:47:12.323Z,95667.05
2018-12-18T11:49:41.511Z,95672.88
2018-12-18T11:52:11.142Z,95665.77
2018-12-18T11:54:40.769Z,95662.20
2018-12-18T11:57:10.462Z,95664.70
2018-12-18T11:59:40.277Z,95668.47
2018-12-18T12:02:09.772Z,95665.67
2018-12-18T12:04:39.177Z,95666.67
2018-12-18T12:07:08.497Z,95663.55
2018-12-18T12:09:37.780Z,95673.04
2018-12-18T12:12:07.210Z,95674.88
2018-12-18T12:14:36.492Z,95669.09
2018-12-18T12:17:05.976Z,95671.06
2018-12-18T12:19:35.389Z,95667.31
2018-12-18T12:22:04.797Z,95660.60
2018-12-18T12:24:34.200Z,95666.67
2018-12-18T12:27:08.587Z,95665.44
2018-12-18T12:29:37.999Z,95665.53
2018-12-18T12:32:07.431Z,95673.06
2018-12-18T12:34:36.834Z,95672.93
2018-12-18T12:37:06.234Z,95674.89
2018-12-18T12:39:35.539Z,95677.52
2018-12-18T12:42:04.863Z,95673.06
2018-12-18T12:44:34.241Z,95685.84
2018-12-18T12:47:03.548Z,95685.03
2018-12-18T12:49:37.740Z,95685.57
2018-12-18T12:52:07.261Z,95683.47
2018-12-18T12:54:36.568Z,95685.30
2018-12-18T12:57:06.043Z,95684.28
2018-12-18T12:59:35.455Z,95679.09
2018-12-18T13:02:04.986Z,95680.66
2018-12-18T13:04:34.387Z,95675.63
2018-12-18T13:07:03.789Z,95671.98
2018-12-18T13:09:33.084Z,95674.38
2018-12-18T13:12:02.412Z,95676.88
2018-12-18T13:14:31.705Z,95678.31
2018-12-18T13:17:01.198Z,95678.25
2018-12-18T13:19:30.607Z,95681.91
2018-12-18T13:22:00.107Z,95682.67
2018-12-18T13:24:29.503Z,95686.50
2018-12-18T13:26:58.920Z,95687.75
2018-12-18T13:29:28.488Z,95685.70
2018-12-18T13:31:57.987Z,95689.25
2018-12-18T13:34:27.415Z,95683.77
2018-12-18T13:36:56.841Z,95684.33
2018-12-18T13:39:26.141Z,95680.52
2018-12-18T13:41:55.443Z,95682.63
2018-12-18T13:44:24.842Z,95685.41
2018-12-18T13:46:54.250Z,95684.36
2018-12-18T13:49:23.556Z,95684.80
2018-12-18T13:51:52.960Z,95688.78
2018-12-18T13:54:22.257Z,95688.34
2018-12-18T13:56:51.739Z,95696.48
2018-12-18T13:59:21.137Z,95690.63
2018-12-18T14:01:50.454Z,95694.02
2018-12-18T14:04:19.866Z,95697.14
2018-12-18T14:06:49.771Z,95702.23
2018-12-18T14:09:19.400Z,95695.85
2018-12-18T14:11:48.622Z,95695.67
2018-12-18T14:14:17.983Z,95698.79
2018-12-18T14:16:47.305Z,95708.43
2018-12-18T14:19:16.600Z,95706.13
2018-12-18T14:21:46.107Z,95701.15
2018-12-18T14:24:16.051Z,95705.13
2018-12-18T14:26:45.224Z,95710.31
2018-12-18T14:29:14.520Z,95699.82
2018-12-18T14:31:44.021Z,95711.69
2018-12-18T14:34:13.431Z,95716.59
2018-12-18T14:36:42.838Z,95711.41
2018-12-18T14:39:12.252Z,95713.66
2018-12-18T14:41:41.465Z,95712.45
2018-12-18T14:44:10.737Z,95710.22
2018-12-18T14:46:40.120Z,95717.87
2018-12-18T14:49:09.525Z,95718.31
2018-12-18T14:51:39.332Z,95703.60
2018-12-18T14:54:08.832Z,95704.02
2018-12-18T14:56:38.067Z,95703.78
2018-12-18T14:59:07.363Z,95703.50
2018-12-18T15:01:36.778Z,95705.17
2018-12-18T15:04:06.171Z,95710.87
2018-12-18T15:06:35.575Z,95706.70
2018-12-18T15:09:06.700Z,95705.75
2018-12-18T15:11:36.031Z,95704.41
2018-12-18T15:14:05.324Z,95699.38
2018-12-18T15:16:34.808Z,95704.52
2018-12-18T15:19:04.218Z,95709.02
2018-12-18T15:21:33.637Z,95713.23
2018-12-18T15:24:04.129Z,95702.40
2018-12-18T15:26:33.564Z,95710.41
2018-12-18T15:29:02.826Z,95706.22
2018-12-18T15:31:32.076Z,95704.84
2018-12-18T15:34:01.461Z,95703.64
2018-12-18T15:36:30.740Z,95697.89
2018-12-18T15:39:00.160Z,95715.09
2018-12-18T15:41:29.660Z,95711.36
2018-12-18T15:43:59.067Z,95715.41
2018-12-18T15:46:28.293Z,95714.03
2018-12-18T15:48:57.680Z,95720.45
2018-12-18T15:51:27.067Z,95726.55
2018-12-18T15:53:56.484Z,95728.56
2018-12-18T15:56:25.789Z,95724.81
2018-12-18T15:58:55.128Z,95733.11
2018-12-18T16:01:24.404Z,95732.67
2018-12-18T16:03:53.896Z,95736.02
2018-12-18T16:06:23.301Z,95735.94
2018-12-18T16:08:52.719Z,95734.41
2018-12-18T16:11:22.003Z,95743.61
2018-12-18T16:13:51.399Z,95737.33
2018-12-18T16:16:20.706Z,95745.52
2018-12-18T16:18:50.027Z,95743.45
2018-12-18T16:21:19.528Z,95753.81
2018-12-18T16:23:48.924Z,95742.02
2018-12-18T16:26:18.323Z,95748.55
2018-12-18T16:28:47.772Z,95749.55
2018-12-18T16:31:16.960Z,95763.53
2018-12-18T16:33:46.252Z,95756.06
2018-12-18T16:36:15.624Z,95760.38
2018-12-18T16:38:45.153Z,95763.20
2018-12-18T16:41:14.642Z,95766.41
2018-12-18T16:43:43.957Z,95770.97
2018-12-18T16:46:13.347Z,95774.56
2018-12-18T16:48:42.575Z,95777.34
2018-12-18T16:51:11.968Z,95781.46
2018-12-18T16:53:41.277Z,95772.59
2018-12-18T16:56:10.747Z,95776.81
2018-12-18T16:58:40.163Z,95785.16
2018-12-18T17:01:09.583Z,95781.17
2018-12-18T17:03:38.978Z,95783.52
2018-12-18T17:06:08.370Z,95782.33
2018-12-18T17:08:37.640Z,95787.06
2018-12-18T17:11:06.906Z,95788.45
2018-12-18T17:13:36.197Z,95787.36
2018-12-18T17:16:05.772Z,95793.25
2018-12-18T17:18:35.109Z,95793.48
2018-12-18T17:21:04.498Z,95794.40
2018-12-18T17:23:33.809Z,95788.17
2018-12-18T17:26:03.104Z,95796.79
2018-12-18T17:28:32.606Z,95800.45
2018-12-18T17:31:02.086Z,95798.14
2018-12-18T17:33:31.487Z,95794.07
2018-12-18T17:36:01.071Z,95798.46
2018-12-18T17:38:30.429Z,95804.31
2018-12-18T17:40:59.733Z,95800.92
2018-12-18T17:43:29.407Z,95801.93
2018-12-18T17:45:58.715Z,95807.05
2018-12-18T17:48:28.309Z,95813.88
2018-12-18T17:50:57.669Z,95816.80
2018-12-18T17:53:27.078Z,95820.83
2018-12-18T17:55:56.377Z,95818.52
2018-12-18T17:58:25.843Z,95817.36
2018-12-18T18:00:55.289Z,95819.43
2018-12-18T18:03:24.509Z,95822.41
2018-12-18T18:05:53.852Z,95819.34
2018-12-18T18:08:23.306Z,95822.02
2018-12-18T18:10:52.934Z,95821.54
2018-12-18T18:13:22.533Z,95824.94
2018-12-18T18:15:51.790Z,95820.64
2018-12-18T18:18:20.977Z,95820.77
2018-12-18T18:20:50.420Z,95818.81
2018-12-18T18:23:19.792Z,95823.83
2018-12-18T18:25:49.376Z,95829.69
2018-12-18T18:28:19.038Z,95824.95
2018-12-18T18:30:49.843Z,95825.17
2018-12-18T18:33:19.274Z,95826.09
2018-12-18T18:35:48.655Z,95822.27
2018-12-18T18:38:18.007Z,95827.73
2018-12-18T18:40:47.836Z,95832.80
2018-12-18T18:43:17.190Z,95830.31
2018-12-18T18:45:46.594Z,95833.47
2018-12-18T18:48:15.986Z,95831.56
2018-12-18T18:50:45.384Z,95828.09
2018-12-18T18:53:14.888Z,95835.39
2018-12-18T18:55:44.293Z,95837.36
2018-12-18T18:58:13.663Z,95836.93
2018-12-18T19:00:43.720Z,95837.55
2018-12-18T19:03:12.803Z,95838.54
2018-12-18T19:05:42.195Z,95840.41
2018-12-18T19:08:11.317Z,95838.44
2018-12-18T19:10:40.387Z,95838.17
2018-12-18T19:13:09.703Z,95836.21
2018-12-18T19:15:39.009Z,95836.50
2018-12-18T19:18:08.311Z,95842.20
2018-12-18T19:20:37.607Z,95840.95
2018-12-18T19:23:06.853Z,95844.36
2018-12-18T19:25:35.991Z,95841.62
2018-12-18T19:28:05.152Z,95839.08
2018-12-18T19:30:34.395Z,95848.34
2018-12-18T19:33:03.616Z,95850.53
2018-12-18T19:35:32.903Z,95849.20
2018-12-18T19:38:03.270Z,95854.47
2018-12-18T19:40:33.796Z,95859.88
2018-12-18T19:43:03.054Z,95858.41
2018-12-18T19:45:32.104Z,95860.17
2018-12-18T19:48:01.370Z,95872.02
2018-12-18T19:50:30.578Z,95867.23
2018-12-18T19:52:59.640Z,95867.03
2018-12-18T19:55:28.871Z,95861.77
2018-12-18T19:57:58.049Z,95868.32
2018-12-18T20:00:27.154Z,95865.21
2018-12-18T20:02:56.340Z,95869.39
2018-12-18T20:05:26.564Z,95865.98
2018-12-18T20:07:55.974Z,95865.93
2018-12-18T20:10:25.388Z,95865.17
2018-12-18T20:12:54.614Z,95862.20
2018-12-18T20:15:24.085Z,95863.77
2018-12-18T20:17:53.476Z,95872.48
2018-12-18T20:20:22.749Z,95862.99
2018-12-18T20:22:51.948Z,95870.68
2018-12-18T20:25:21.188Z,95867.51
2018-12-18T20:27:50.596Z,95866.12
2018-12-18T20:30:19.783Z,95862.91
2018-12-18T20:32:49.008Z,95862.78
2018-12-18T20:35:18.188Z,95871.45
2018-12-18T20:37:47.471Z,95866.42
2018-12-18T20:40:16.948Z,95863.19
2018-12-18T20:42:46.306Z,95860.86
2018-12-18T20:45:15.796Z,95860.33
2018-12-18T20:47:44.983Z,95860.22
2018-12-18T20:50:14.172Z,95861.67
2018-12-18T20:52:43.387Z,95864.88
2018-12-18T20:55:12.620Z,95863.34
2018-12-18T20:57:41.982Z,95865.21
2018-12-18T21:00:12.985Z,95859.32
2018-12-18T21:02:42.399Z,95862.23
2018-12-18T21:05:11.873Z,95862.17
2018-12-18T21:07:41.050Z,95864.37
2018-12-18T21:10:10.350Z,95868.78
2018-12-18T21:12:39.298Z,95870.13
2018-12-18T21:15:08.500Z,95873.04
2018-12-18T21:17:37.784Z,95871.30
2018-12-18T21:20:07.816Z,95866.82
2018-12-18T21:22:36.807Z,95862.41
2018-12-18T21:25:06.644Z,95869.34
2018-12-18T21:27:35.854Z,95867.27
2018-12-18T21:30:05.436Z,95862.95
2018-12-18T21:32:34.632Z,95861.59
2018-12-18T21:35:03.653Z,95858.08
2018-12-18T21:37:32.930Z,95856.84
2018-12-18T21:40:02.347Z,95858.80
2018-12-18T21:42:31.536Z,95852.52
2018-12-18T21:45:01.112Z,95854.97
2018-12-18T21:47:30.236Z,95849.83
2018-12-18T21:49:59.548Z,95843.45
2018-12-18T21:52:28.841Z,95839.42
2018-12-18T21:54:58.252Z,95845.09
2018-12-18T21:57:27.542Z,95843.67
2018-12-18T21:59:56.637Z,95844.89
2018-12-18T22:02:25.951Z,95841.62
2018-12-18T22:04:55.260Z,95840.60
2018-12-18T22:07:24.548Z,95843.77
2018-12-18T22:09:53.770Z,95840.27
2018-12-18T22:12:22.843Z,95845.44
2018-12-18T22:14:52.170Z,95845.44
2018-12-18T22:17:21.568Z,95850.38
2018-12-18T22:19:50.640Z,95848.20
2018-12-18T22:22:20.063Z,95854.35
2018-12-18T22:24:49.281Z,95845.39
2018-12-18T22:27:18.541Z,95848.39
2018-12-18T22:29:47.511Z,95839.78
2018-12-18T22:32:16.773Z,95841.84
2018-12-18T22:34:45.980Z,95843.25
2018-12-18T22:37:15.169Z,95850.81
2018-12-18T22:39:44.308Z,95843.19
2018-12-18T22:42:13.486Z,95842.85
2018-12-18T22:44:42.762Z,95844.09
2018-12-18T22:47:11.933Z,95841.00
2018-12-18T22:49:41.234Z,95842.63
2018-12-18T22:52:10.570Z,95839.33
2018-12-18T22:54:39.851Z,95832.39
2018-12-18T22:57:09.049Z,95829.44
2018-12-18T22:59:38.230Z,95827.68
2018-12-18T23:02:12.349Z,95826.07
2018-12-18T23:04:41.615Z,95825.97
2018-12-18T23:07:10.719Z,95828.12
2018-12-18T23:09:39.930Z,95815.64
2018-12-18T23:12:09.037Z,95818.52
2018-12-18T23:14:38.209Z,95823.58
2018-12-18T23:17:07.467Z,95817.17
2018-12-18T23:19:36.643Z,95809.75
2018-12-18T23:22:05.728Z,95813.34
2018-12-18T23:24:34.928Z,95810.23
2018-12-18T23:27:04.152Z,95808.70
2018-12-18T23:29:33.318Z,95810.86
2018-12-18T23:32:02.621Z,95801.27
2018-12-18T23:34:33.116Z,95807.06
2018-12-18T23:37:02.483Z,95815.95
2018-12-18T23:39:31.628Z,95815.63
2018-12-18T23:42:00.829Z,95806.05
2018-12-18T23:44:29.847Z,95810.27
2018-12-18T23:46:59.047Z,95814.39
2018-12-18T23:49:28.251Z,95810.07
2018-12-18T23:51:57.396Z,95807.48
2018-12-18T23:54:26.640Z,95812.13
2018-12-18T23:56:55.848Z,95814.36
2018-12-18T23:59:25.082Z,95809.81
